createdAt,value
2018-03-24T00:00:15.421Z,9.40
2018-03-24T00:01:15.434Z,8.90
2018-03-24T00:02:15.454Z,9.10
2018-03-24T00:03:15.474Z,9.60
2018-03-24T00:04:15.497Z,9.10
2018-03-24T00:05:15.518Z,9.40
2018-03-24T00:06:15.539Z,9.30
2018-03-24T00:07:15.559Z,9.00
2018-03-24T00:08:15.621Z,9.00
2018-03-24T00:09:15.598Z,9.00
2018-03-24T00:10:15.617Z,9.20
2018-03-24T00:11:15.659Z,9.10
2018-03-24T00:12:15.662Z,8.90
2018-03-24T00:13:15.676Z,9.50
2018-03-24T00:14:15.699Z,9.40
2018-03-24T00:15:15.717Z,9.50
2018-03-24T00:16:15.742Z,9.40
2018-03-24T00:17:15.758Z,9.00
2018-03-24T00:18:15.778Z,9.10
2018-03-24T00:19:15.797Z,9.10
2018-03-24T00:20:15.818Z,9.70
2018-03-24T00:21:15.841Z,9.00
2018-03-24T00:22:15.857Z,9.70
2018-03-24T00:23:15.877Z,9.40
2018-03-24T00:24:15.897Z,8.90
2018-03-24T00:25:15.920Z,9.10
2018-03-24T00:26:15.938Z,8.90
2018-03-24T00:27:15.960Z,9.40
2018-03-24T00:28:15.979Z,9.60
2018-03-24T00:29:15.998Z,9.30
2018-03-24T00:30:16.022Z,9.30
2018-03-24T00:31:16.039Z,9.10
2018-03-24T00:32:16.067Z,9.20
2018-03-24T00:33:16.079Z,9.70
2018-03-24T00:34:16.106Z,9.50
2018-03-24T00:35:16.121Z,9.30
2018-03-24T00:36:16.137Z,9.30
2018-03-24T00:37:16.160Z,9.30
2018-03-24T00:38:16.178Z,9.60
2018-03-24T00:39:16.206Z,9.20
2018-03-24T00:40:16.219Z,10.50
2018-03-24T00:41:16.237Z,9.50
2018-03-24T00:42:16.262Z,9.20
2018-03-24T00:43:16.281Z,9.00
2018-03-24T00:44:16.300Z,9.00
2018-03-24T00:45:16.325Z,9.10
2018-03-24T00:46:16.350Z,9.30
2018-03-24T00:47:16.364Z,9.50
2018-03-24T00:48:16.392Z,9.00
2018-03-24T00:49:16.401Z,9.60
2018-03-24T00:50:16.423Z,9.30
2018-03-24T00:51:16.441Z,9.60
2018-03-24T00:52:16.459Z,8.60
2018-03-24T00:53:16.479Z,10.00
2018-03-24T00:54:16.495Z,9.50
2018-03-24T00:55:16.517Z,9.10
2018-03-24T00:56:16.536Z,9.20
2018-03-24T00:57:16.569Z,9.60
2018-03-24T00:58:16.575Z,9.30
2018-03-24T00:59:16.594Z,9.10
2018-03-24T01:00:16.620Z,9.60
2018-03-24T01:01:16.637Z,9.00
2018-03-24T01:02:16.660Z,9.40
2018-03-24T01:03:16.679Z,8.90
2018-03-24T01:04:16.704Z,8.40
2018-03-24T01:05:16.723Z,9.50
2018-03-24T01:06:16.744Z,9.50
2018-03-24T01:07:16.759Z,9.20
2018-03-24T01:08:16.784Z,9.00
2018-03-24T01:09:16.803Z,8.80
2018-03-24T01:10:16.823Z,8.90
2018-03-24T01:11:16.846Z,9.40
2018-03-24T01:12:16.867Z,9.00
2018-03-24T01:13:16.891Z,9.40
2018-03-24T01:14:16.900Z,9.60
2018-03-24T01:15:16.920Z,9.10
2018-03-24T01:16:16.939Z,9.40
2018-03-24T01:17:16.959Z,9.20
2018-03-24T01:18:16.979Z,8.80
2018-03-24T01:19:17.000Z,8.80
2018-03-24T01:20:17.019Z,9.80
2018-03-24T01:21:17.038Z,8.90
2018-03-24T01:22:17.059Z,8.80
2018-03-24T01:23:17.078Z,9.00
2018-03-24T01:24:17.100Z,9.00
2018-03-24T01:25:17.119Z,9.10
2018-03-24T01:26:17.145Z,9.40
2018-03-24T01:27:17.213Z,9.30
2018-03-24T01:28:17.182Z,9.10
2018-03-24T01:29:17.200Z,9.30
2018-03-24T01:30:17.219Z,9.80
2018-03-24T01:31:17.247Z,9.40
2018-03-24T01:32:17.263Z,9.20
2018-03-24T01:33:17.298Z,9.30
2018-03-24T01:34:17.303Z,9.90
2018-03-24T01:35:17.319Z,9.10
2018-03-24T01:36:17.346Z,9.50
2018-03-24T01:37:17.365Z,10.30
2018-03-24T01:38:17.384Z,9.50
2018-03-24T01:39:17.407Z,9.70
2018-03-24T01:40:17.427Z,11.00
2018-03-24T01:41:17.444Z,9.60
2018-03-24T01:42:17.466Z,9.20
2018-03-24T01:43:17.482Z,9.80
2018-03-24T01:44:17.507Z,9.80
2018-03-24T01:45:17.528Z,10.00
2018-03-24T01:46:17.547Z,9.40
2018-03-24T01:47:17.573Z,9.60
2018-03-24T01:48:17.585Z,9.10
2018-03-24T01:49:17.607Z,8.90
2018-03-24T01:50:17.627Z,9.10
2018-03-24T01:51:17.644Z,9.60
2018-03-24T01:52:17.667Z,10.50
2018-03-24T01:53:17.696Z,10.00
2018-03-24T01:54:17.708Z,9.20
2018-03-24T01:55:17.730Z,9.40
2018-03-24T01:56:17.748Z,9.70
2018-03-24T01:57:17.768Z,9.20
2018-03-24T01:58:17.787Z,9.70
2018-03-24T01:59:17.815Z,10.00
2018-03-24T02:00:17.833Z,9.60
2018-03-24T02:01:17.851Z,10.00
2018-03-24T02:02:17.869Z,9.60
2018-03-24T02:03:17.891Z,9.80
2018-03-24T02:04:17.914Z,10.80
2018-03-24T02:05:17.936Z,9.40
2018-03-24T02:06:17.954Z,10.00
2018-03-24T02:07:17.971Z,9.50
2018-03-24T02:08:17.995Z,10.10
2018-03-24T02:09:18.017Z,9.80
2018-03-24T02:10:18.040Z,10.30
2018-03-24T02:11:18.051Z,11.10
2018-03-24T02:12:18.072Z,11.10
2018-03-24T02:13:18.092Z,10.00
2018-03-24T02:14:18.110Z,10.70
2018-03-24T02:15:18.140Z,10.70
2018-03-24T02:16:18.155Z,10.20
2018-03-24T02:17:18.179Z,10.60
2018-03-24T02:18:18.199Z,10.50
2018-03-24T02:19:18.215Z,10.50
2018-03-24T02:20:18.239Z,10.60
2018-03-24T02:21:18.259Z,11.20
2018-03-24T02:22:18.279Z,10.60
2018-03-24T02:23:18.299Z,10.50
2018-03-24T02:24:18.314Z,11.30
2018-03-24T02:25:18.335Z,10.40
2018-03-24T02:26:18.356Z,10.70
2018-03-24T02:27:18.375Z,10.60
2018-03-24T02:28:18.397Z,10.60
2018-03-24T02:29:18.415Z,10.70
2018-03-24T02:30:18.440Z,10.80
2018-03-24T02:31:18.457Z,10.50
2018-03-24T02:32:18.477Z,10.60
2018-03-24T02:33:18.501Z,10.90
2018-03-24T02:34:18.528Z,10.20
2018-03-24T02:35:18.539Z,11.10
2018-03-24T02:36:18.563Z,10.50
2018-03-24T02:37:18.583Z,10.80
2018-03-24T02:38:18.608Z,11.00
2018-03-24T02:39:18.619Z,12.00
2018-03-24T02:40:18.642Z,10.80
2018-03-24T02:41:18.660Z,11.10
2018-03-24T02:42:18.688Z,10.70
2018-03-24T02:43:18.705Z,10.90
2018-03-24T02:44:18.726Z,12.00
2018-03-24T02:45:18.742Z,11.40
2018-03-24T02:46:18.769Z,11.30
2018-03-24T02:47:18.794Z,11.80
2018-03-24T02:48:18.805Z,11.70
2018-03-24T02:49:18.825Z,11.30
2018-03-24T02:50:18.852Z,11.90
2018-03-24T02:51:18.864Z,11.60
2018-03-24T02:52:18.886Z,12.00
2018-03-24T02:53:18.919Z,11.60
2018-03-24T02:54:18.925Z,11.70
2018-03-24T02:55:18.945Z,12.10
2018-03-24T02:56:18.970Z,12.20
2018-03-24T02:57:18.983Z,11.50
2018-03-24T02:58:19.013Z,12.00
2018-03-24T02:59:19.024Z,11.90
2018-03-24T03:00:19.051Z,12.20
2018-03-24T03:01:19.067Z,12.30
2018-03-24T03:02:19.088Z,11.50
2018-03-24T03:03:19.108Z,12.10
2018-03-24T03:04:19.132Z,11.60
2018-03-24T03:05:19.146Z,11.30
2018-03-24T03:06:19.170Z,12.20
2018-03-24T03:07:19.201Z,12.00
2018-03-24T03:08:19.207Z,11.30
2018-03-24T03:09:19.233Z,11.50
2018-03-24T03:10:19.247Z,11.70
2018-03-24T03:11:19.267Z,12.10
2018-03-24T03:12:19.286Z,12.40
2018-03-24T03:13:19.308Z,11.60
2018-03-24T03:14:19.332Z,12.40
2018-03-24T03:15:19.347Z,12.30
2018-03-24T03:16:19.366Z,12.10
2018-03-24T03:17:19.387Z,12.10
2018-03-24T03:18:19.407Z,12.40
2018-03-24T03:19:19.432Z,12.40
2018-03-24T03:20:19.446Z,13.10
2018-03-24T03:21:19.467Z,12.40
2018-03-24T03:22:19.488Z,11.90
2018-03-24T03:23:19.508Z,12.20
2018-03-24T03:24:19.528Z,12.40
2018-03-24T03:25:19.547Z,12.40
2018-03-24T03:26:19.566Z,12.50
2018-03-24T03:27:19.591Z,12.00
2018-03-24T03:28:19.609Z,12.60
2018-03-24T03:29:19.630Z,12.40
2018-03-24T03:30:19.651Z,12.40
2018-03-24T03:31:19.668Z,12.50
2018-03-24T03:32:19.690Z,13.60
2018-03-24T03:33:19.706Z,12.60
2018-03-24T03:34:19.735Z,12.40
2018-03-24T03:35:19.748Z,12.20
2018-03-24T03:36:19.766Z,12.80
2018-03-24T03:37:19.790Z,13.50
2018-03-24T03:38:19.815Z,13.00
2018-03-24T03:39:19.826Z,12.80
2018-03-24T03:40:19.846Z,13.00
2018-03-24T03:41:19.870Z,13.20
2018-03-24T03:42:19.895Z,13.00
2018-03-24T03:43:19.906Z,13.50
2018-03-24T03:44:19.927Z,12.90
2018-03-24T03:45:19.953Z,13.30
2018-03-24T03:46:19.967Z,12.80
2018-03-24T03:47:19.989Z,12.70
2018-03-24T03:48:20.010Z,12.80
2018-03-24T03:49:20.026Z,12.60
2018-03-24T03:50:20.045Z,13.20
2018-03-24T03:51:20.068Z,14.00
2018-03-24T03:52:20.086Z,14.00
2018-03-24T03:53:20.110Z,13.50
2018-03-24T03:54:20.131Z,14.30
2018-03-24T03:55:20.145Z,13.90
2018-03-24T03:56:20.170Z,13.20
2018-03-24T03:57:20.192Z,13.00
2018-03-24T03:58:20.212Z,13.30
2018-03-24T03:59:20.230Z,13.30
2018-03-24T04:00:20.250Z,13.60
2018-03-24T04:01:20.269Z,13.80
2018-03-24T04:02:20.287Z,13.40
2018-03-24T04:03:20.309Z,13.60
2018-03-24T04:04:20.330Z,13.30
2018-03-24T04:05:20.346Z,14.10
2018-03-24T04:06:20.369Z,13.90
2018-03-24T04:07:20.412Z,13.70
2018-03-24T04:08:20.413Z,13.50
2018-03-24T04:09:20.431Z,13.50
2018-03-24T04:10:20.449Z,14.20
2018-03-24T04:11:20.470Z,13.90
2018-03-24T04:12:20.489Z,14.30
2018-03-24T04:13:20.508Z,15.30
2018-03-24T04:14:20.534Z,13.60
2018-03-24T04:15:20.552Z,13.40
2018-03-24T04:16:20.569Z,13.80
2018-03-24T04:17:20.590Z,14.70
2018-03-24T04:18:20.608Z,13.60
2018-03-24T04:19:20.630Z,14.40
2018-03-24T04:20:20.648Z,14.60
2018-03-24T04:21:20.668Z,14.00
2018-03-24T04:22:20.688Z,14.40
2018-03-24T04:23:20.709Z,13.90
2018-03-24T04:24:20.732Z,13.40
2018-03-24T04:25:20.748Z,14.30
2018-03-24T04:26:20.767Z,14.30
2018-03-24T04:27:20.788Z,14.30
2018-03-24T04:28:20.808Z,14.70
2018-03-24T04:29:20.827Z,14.20
2018-03-24T04:30:20.848Z,14.90
2018-03-24T04:31:20.873Z,14.50
2018-03-24T04:32:20.890Z,14.80
2018-03-24T04:33:20.907Z,15.10
2018-03-24T04:34:20.927Z,15.00
2018-03-24T04:35:20.955Z,16.60
2018-03-24T04:36:20.971Z,15.00
2018-03-24T04:37:20.988Z,16.10
2018-03-24T04:38:21.010Z,15.50
2018-03-24T04:39:21.040Z,14.50
2018-03-24T04:40:21.047Z,15.00
2018-03-24T04:41:21.070Z,15.20
2018-03-24T04:42:21.092Z,14.30
2018-03-24T04:43:21.109Z,15.10
2018-03-24T04:44:21.125Z,15.20
2018-03-24T04:45:21.148Z,16.00
2018-03-24T04:46:21.168Z,15.40
2018-03-24T04:47:21.194Z,15.20
2018-03-24T04:48:21.207Z,14.80
2018-03-24T04:49:21.228Z,15.10
2018-03-24T04:50:21.247Z,15.70
2018-03-24T04:51:21.269Z,15.10
2018-03-24T04:52:21.287Z,16.60
2018-03-24T04:53:21.308Z,14.90
2018-03-24T04:54:21.339Z,14.90
2018-03-24T04:55:21.349Z,14.90
2018-03-24T04:56:21.366Z,15.20
2018-03-24T04:57:21.386Z,15.40
2018-03-24T04:58:21.409Z,15.80
2018-03-24T04:59:21.426Z,15.00
2018-03-24T05:00:21.446Z,15.40
2018-03-24T05:01:21.467Z,15.60
2018-03-24T05:02:21.486Z,15.00
2018-03-24T05:03:21.513Z,15.30
2018-03-24T05:04:21.531Z,14.30
2018-03-24T05:05:21.545Z,15.20
2018-03-24T05:06:21.571Z,15.00
2018-03-24T05:07:21.585Z,14.90
2018-03-24T05:08:21.611Z,15.00
2018-03-24T05:09:21.634Z,15.70
2018-03-24T05:10:21.646Z,14.80
2018-03-24T05:11:21.666Z,15.70
2018-03-24T05:12:21.687Z,14.90
2018-03-24T05:13:21.712Z,15.00
2018-03-24T05:14:21.725Z,16.20
2018-03-24T05:15:21.745Z,15.30
2018-03-24T05:16:21.765Z,15.80
2018-03-24T05:17:21.782Z,15.90
2018-03-24T05:18:21.810Z,16.10
2018-03-24T05:19:21.824Z,15.90
2018-03-24T05:20:21.845Z,15.80
2018-03-24T05:21:21.865Z,15.50
2018-03-24T05:22:21.890Z,18.00
2018-03-24T05:23:21.902Z,17.10
2018-03-24T05:24:21.926Z,16.30
2018-03-24T05:25:21.946Z,16.80
2018-03-24T05:26:21.963Z,16.30
2018-03-24T05:27:21.988Z,16.50
2018-03-24T05:28:22.003Z,17.00
2018-03-24T05:29:22.029Z,16.70
2018-03-24T05:30:22.046Z,16.50
2018-03-24T05:31:22.069Z,17.40
2018-03-24T05:32:22.084Z,17.40
2018-03-24T05:33:22.100Z,18.80
2018-03-24T05:34:22.119Z,19.60
2018-03-24T05:35:22.152Z,16.40
2018-03-24T05:36:22.168Z,17.30
2018-03-24T05:37:22.183Z,16.00
2018-03-24T05:38:22.205Z,18.00
2018-03-24T05:39:22.223Z,17.80
2018-03-24T05:40:22.243Z,16.90
2018-03-24T05:41:22.263Z,19.00
2018-03-24T05:42:22.287Z,18.20
2018-03-24T05:43:22.298Z,16.80
2018-03-24T05:44:22.323Z,17.90
2018-03-24T05:45:22.344Z,17.00
2018-03-24T05:46:22.364Z,18.40
2018-03-24T05:47:22.379Z,18.00
2018-03-24T05:48:22.402Z,16.90
2018-03-24T05:49:22.423Z,17.00
2018-03-24T05:50:22.438Z,16.40
2018-03-24T05:51:22.460Z,17.70
2018-03-24T05:52:22.486Z,18.50
2018-03-24T05:53:22.499Z,16.50
2018-03-24T05:54:22.518Z,18.40
2018-03-24T05:55:22.543Z,18.40
2018-03-24T05:56:22.557Z,19.30
2018-03-24T05:57:22.584Z,18.10
2018-03-24T05:58:22.598Z,17.90
2018-03-24T05:59:22.619Z,18.50
2018-03-24T06:00:22.640Z,17.30
2018-03-24T06:01:22.668Z,17.40
2018-03-24T06:02:22.678Z,18.20
2018-03-24T06:03:22.699Z,17.00
2018-03-24T06:04:22.718Z,18.60
2018-03-24T06:05:22.747Z,18.00
2018-03-24T06:06:22.761Z,19.60
2018-03-24T06:07:22.786Z,18.50
2018-03-24T06:08:22.806Z,17.50
2018-03-24T06:09:22.816Z,18.40
2018-03-24T06:10:22.843Z,19.40
2018-03-24T06:11:22.857Z,18.30
2018-03-24T06:12:22.876Z,18.80
2018-03-24T06:13:22.900Z,17.90
2018-03-24T06:14:22.925Z,18.40
2018-03-24T06:15:22.939Z,17.60
2018-03-24T06:16:22.957Z,17.60
2018-03-24T06:17:22.979Z,17.40
2018-03-24T06:18:23.000Z,19.80
2018-03-24T06:19:23.016Z,17.90
2018-03-24T06:20:23.040Z,19.20
2018-03-24T06:21:23.055Z,18.30
2018-03-24T06:22:23.074Z,17.30
2018-03-24T06:23:23.100Z,18.10
2018-03-24T06:24:23.116Z,17.60
2018-03-24T06:25:23.142Z,18.90
2018-03-24T06:26:23.160Z,18.30
2018-03-24T06:27:23.176Z,17.90
2018-03-24T06:28:23.195Z,19.40
2018-03-24T06:29:23.223Z,18.30
2018-03-24T06:30:23.244Z,17.90
2018-03-24T06:31:23.263Z,18.80
2018-03-24T06:32:23.275Z,18.40
2018-03-24T06:33:23.301Z,19.50
2018-03-24T06:34:23.319Z,20.10
2018-03-24T06:35:23.341Z,19.20
2018-03-24T06:36:23.358Z,18.30
2018-03-24T06:37:23.390Z,19.30
2018-03-24T06:38:23.422Z,19.70
2018-03-24T06:39:23.423Z,17.80
2018-03-24T06:40:23.445Z,19.50
2018-03-24T06:41:23.462Z,19.10
2018-03-24T06:42:23.489Z,19.70
2018-03-24T06:43:23.499Z,18.60
2018-03-24T06:44:23.521Z,19.40
2018-03-24T06:45:23.543Z,19.30
2018-03-24T06:46:23.566Z,18.60
2018-03-24T06:47:23.585Z,19.90
2018-03-24T06:48:23.601Z,19.20
2018-03-24T06:49:23.620Z,20.10
2018-03-24T06:50:23.641Z,18.60
2018-03-24T06:51:23.662Z,19.00
2018-03-24T06:52:23.685Z,21.40
2018-03-24T06:53:23.700Z,18.50
2018-03-24T06:54:23.725Z,19.90
2018-03-24T06:55:23.750Z,20.30
2018-03-24T06:56:23.761Z,21.70
2018-03-24T06:57:23.790Z,19.60
2018-03-24T06:58:23.806Z,19.00
2018-03-24T06:59:23.820Z,20.60
2018-03-24T07:00:23.841Z,19.30
2018-03-24T07:01:23.860Z,19.70
2018-03-24T07:02:23.889Z,19.70
2018-03-24T07:03:23.904Z,20.20
2018-03-24T07:04:23.918Z,19.70
2018-03-24T07:05:23.945Z,21.60
2018-03-24T07:06:23.965Z,20.90
2018-03-24T07:07:23.983Z,19.70
2018-03-24T07:08:24.003Z,20.50
2018-03-24T07:09:24.032Z,19.50
2018-03-24T07:10:24.050Z,18.80
2018-03-24T07:11:24.059Z,20.30
2018-03-24T07:12:24.088Z,20.10
2018-03-24T07:13:24.108Z,19.20
2018-03-24T07:14:24.127Z,19.20
2018-03-24T07:15:24.142Z,19.60
2018-03-24T07:16:24.164Z,20.80
2018-03-24T07:17:24.184Z,20.90
2018-03-24T07:18:24.203Z,19.90
2018-03-24T07:19:24.228Z,20.40
2018-03-24T07:20:24.248Z,20.50
2018-03-24T07:21:24.267Z,20.50
2018-03-24T07:22:24.291Z,19.40
2018-03-24T07:23:24.307Z,19.40
2018-03-24T07:24:24.330Z,22.20
2018-03-24T07:25:24.348Z,21.50
2018-03-24T07:26:24.371Z,21.00
2018-03-24T07:27:24.387Z,22.10
2018-03-24T07:28:24.408Z,20.80
2018-03-24T07:29:24.431Z,21.60
2018-03-24T07:30:24.461Z,21.30
2018-03-24T07:31:24.468Z,22.00
2018-03-24T07:32:24.487Z,19.00
2018-03-24T07:33:24.507Z,20.50
2018-03-24T07:34:24.527Z,21.60
2018-03-24T07:35:24.550Z,22.20
2018-03-24T07:36:24.567Z,22.30
2018-03-24T07:37:24.591Z,21.20
2018-03-24T07:38:24.608Z,23.70
2018-03-24T07:39:24.627Z,21.20
2018-03-24T07:40:24.652Z,21.00
2018-03-24T07:41:24.676Z,22.60
2018-03-24T07:42:24.692Z,21.60
2018-03-24T07:43:24.714Z,20.70
2018-03-24T07:44:24.738Z,21.40
2018-03-24T07:45:24.757Z,22.70
2018-03-24T07:46:24.775Z,21.70
2018-03-24T07:47:24.796Z,22.40
2018-03-24T07:48:24.813Z,22.40
2018-03-24T07:49:24.840Z,21.00
2018-03-24T07:50:24.860Z,21.00
2018-03-24T07:51:24.877Z,23.00
2018-03-24T07:52:24.903Z,22.70
2018-03-24T07:53:24.916Z,23.00
2018-03-24T07:54:24.940Z,24.00
2018-03-24T07:55:24.956Z,20.80
2018-03-24T07:56:24.976Z,22.80
2018-03-24T07:57:25.107Z,21.50
2018-03-24T07:58:25.020Z,21.40
2018-03-24T07:59:25.042Z,20.80
2018-03-24T08:00:25.063Z,21.90
2018-03-24T08:01:25.084Z,23.20
2018-03-24T08:02:25.101Z,19.70
2018-03-24T08:03:25.142Z,20.30
2018-03-24T08:04:25.145Z,22.40
2018-03-24T08:05:25.160Z,20.90
2018-03-24T08:06:25.186Z,21.30
2018-03-24T08:07:25.210Z,22.30
2018-03-24T08:08:25.225Z,23.00
2018-03-24T08:09:25.245Z,22.20
2018-03-24T08:10:25.266Z,22.70
2018-03-24T08:11:25.292Z,22.50
2018-03-24T08:12:25.306Z,21.80
2018-03-24T08:13:25.334Z,23.10
2018-03-24T08:14:25.353Z,23.90
2018-03-24T08:15:25.369Z,23.40
2018-03-24T08:16:25.390Z,23.50
2018-03-24T08:17:25.410Z,22.20
2018-03-24T08:18:25.435Z,24.50
2018-03-24T08:19:25.457Z,23.90
2018-03-24T08:20:25.473Z,23.30
2018-03-24T08:21:25.495Z,22.80
2018-03-24T08:22:25.515Z,24.50
2018-03-24T08:23:25.539Z,23.50
2018-03-24T08:24:25.573Z,22.60
2018-03-24T08:25:25.582Z,22.90
2018-03-24T08:26:25.604Z,24.70
2018-03-24T08:27:25.628Z,23.40
2018-03-24T08:28:25.645Z,23.10
2018-03-24T08:29:25.668Z,23.90
2018-03-24T08:30:25.688Z,23.80
2018-03-24T08:31:25.710Z,22.80
2018-03-24T08:32:25.728Z,23.60
2018-03-24T08:33:25.757Z,23.10
2018-03-24T08:34:25.784Z,23.70
2018-03-24T08:35:25.797Z,23.70
2018-03-24T08:36:25.818Z,26.00
2018-03-24T08:37:25.837Z,22.70
2018-03-24T08:38:25.915Z,22.60
2018-03-24T08:39:25.872Z,23.20
2018-03-24T08:40:25.898Z,24.20
2018-03-24T08:41:25.920Z,23.70
2018-03-24T08:42:25.939Z,23.20
2018-03-24T08:43:25.959Z,23.50
2018-03-24T08:44:25.984Z,23.10
2018-03-24T08:45:26.004Z,21.30
2018-03-24T08:46:26.026Z,23.20
2018-03-24T08:47:26.053Z,24.30
2018-03-24T08:48:26.068Z,23.40
2018-03-24T08:49:26.087Z,22.40
2018-03-24T08:50:26.107Z,22.60
2018-03-24T08:51:26.135Z,24.60
2018-03-24T08:52:26.154Z,23.90
2018-03-24T08:53:26.174Z,24.40
2018-03-24T08:54:26.195Z,23.00
2018-03-24T08:55:26.226Z,24.20
2018-03-24T08:56:26.241Z,25.20
2018-03-24T08:57:26.260Z,23.90
2018-03-24T08:58:26.285Z,24.10
2018-03-24T08:59:26.307Z,26.00
2018-03-24T09:00:26.322Z,24.60
2018-03-24T09:01:26.351Z,24.60
2018-03-24T09:02:26.372Z,24.70
2018-03-24T09:03:26.444Z,25.20
2018-03-24T09:04:26.415Z,23.40
2018-03-24T09:05:26.433Z,23.40
2018-03-24T09:06:26.467Z,26.70
2018-03-24T09:07:26.482Z,25.20
2018-03-24T09:08:26.502Z,25.50
2018-03-24T09:09:26.521Z,24.60
2018-03-24T09:10:26.541Z,22.90
2018-03-24T09:11:26.564Z,23.80
2018-03-24T09:12:26.597Z,23.10
2018-03-24T09:13:26.613Z,23.80
2018-03-24T09:14:26.631Z,26.50
2018-03-24T09:15:26.655Z,24.60
2018-03-24T09:16:26.674Z,25.70
2018-03-24T09:17:26.700Z,26.20
2018-03-24T09:18:26.721Z,26.20
2018-03-24T09:19:26.745Z,25.50
2018-03-24T09:20:26.769Z,25.60
2018-03-24T09:21:26.788Z,26.00
2018-03-24T09:22:26.806Z,25.50
2018-03-24T09:23:26.844Z,24.20
2018-03-24T09:24:26.861Z,24.70
2018-03-24T09:25:26.878Z,27.10
2018-03-24T09:26:26.901Z,22.70
2018-03-24T09:27:26.919Z,27.10
2018-03-24T09:28:26.941Z,25.20
2018-03-24T09:29:26.960Z,25.20
2018-03-24T09:30:26.982Z,25.00
2018-03-24T09:31:27.014Z,24.80
2018-03-24T09:32:27.029Z,23.30
2018-03-24T09:33:27.050Z,24.30
2018-03-24T09:34:27.069Z,25.50
2018-03-24T09:35:27.091Z,24.30
2018-03-24T09:36:27.116Z,26.20
2018-03-24T09:37:27.155Z,24.80
2018-03-24T09:38:27.161Z,24.90
2018-03-24T09:39:27.183Z,24.10
2018-03-24T09:40:27.224Z,23.90
2018-03-24T09:41:27.226Z,23.80
2018-03-24T09:42:27.250Z,23.50
2018-03-24T09:43:27.274Z,24.30
2018-03-24T09:44:27.291Z,22.60
2018-03-24T09:45:27.317Z,24.40
2018-03-24T09:46:27.340Z,25.10
2018-03-24T09:47:27.377Z,26.20
2018-03-24T09:48:27.380Z,22.70
2018-03-24T09:49:27.408Z,24.20
2018-03-24T09:50:27.430Z,24.70
2018-03-24T09:51:27.451Z,23.80
2018-03-24T09:52:27.474Z,24.60
2018-03-24T09:53:27.495Z,22.90
2018-03-24T09:54:27.537Z,26.70
2018-03-24T09:55:27.540Z,25.50
2018-03-24T09:56:27.562Z,24.80
2018-03-24T09:57:27.595Z,23.70
2018-03-24T09:58:27.613Z,25.20
2018-03-24T09:59:27.630Z,24.20
2018-03-24T10:00:27.654Z,24.20
2018-03-24T10:01:27.675Z,25.60
2018-03-24T10:02:27.699Z,24.60
2018-03-24T10:03:27.733Z,26.30
2018-03-24T10:04:27.759Z,25.40
2018-03-24T10:05:27.769Z,24.90
2018-03-24T10:06:27.799Z,26.10
2018-03-24T10:07:27.818Z,24.30
2018-03-24T10:08:27.849Z,23.70
2018-03-24T10:09:27.859Z,24.90
2018-03-24T10:10:27.888Z,23.90
2018-03-24T10:11:27.904Z,25.00
2018-03-24T10:12:27.931Z,26.50
2018-03-24T10:13:27.959Z,25.50
2018-03-24T10:14:27.978Z,24.40
2018-03-24T10:15:28.004Z,23.30
2018-03-24T10:16:28.023Z,25.50
2018-03-24T10:17:28.048Z,24.90
2018-03-24T10:18:28.077Z,25.60
2018-03-24T10:19:28.111Z,24.70
2018-03-24T10:20:28.118Z,26.40
2018-03-24T10:21:28.138Z,25.80
2018-03-24T10:22:28.210Z,24.60
2018-03-24T10:23:28.193Z,25.70
2018-03-24T10:24:28.213Z,26.20
2018-03-24T10:25:28.236Z,26.30
2018-03-24T10:26:28.265Z,25.60
2018-03-24T10:27:28.288Z,24.60
2018-03-24T10:28:28.314Z,25.00
2018-03-24T10:29:28.335Z,25.50
2018-03-24T10:30:28.354Z,25.00
2018-03-24T10:31:28.380Z,24.70
2018-03-24T10:32:28.404Z,25.70
2018-03-24T10:33:28.425Z,25.70
2018-03-24T10:34:28.448Z,27.80
2018-03-24T10:35:28.503Z,25.50
2018-03-24T10:36:28.495Z,25.70
2018-03-24T10:37:28.519Z,25.50
2018-03-24T10:38:28.544Z,25.60
2018-03-24T10:39:28.568Z,23.90
2018-03-24T10:40:28.588Z,25.60
2018-03-24T10:41:28.625Z,25.30
2018-03-24T10:42:28.640Z,27.80
2018-03-24T10:43:28.658Z,27.70
2018-03-24T10:44:28.689Z,28.20
2018-03-24T10:45:28.707Z,29.30
2018-03-24T10:46:28.735Z,28.10
2018-03-24T10:47:28.751Z,25.50
2018-03-24T10:48:28.776Z,26.70
2018-03-24T10:49:28.804Z,28.70
2018-03-24T10:50:28.831Z,27.70
2018-03-24T10:51:28.854Z,28.10
2018-03-24T10:52:28.895Z,28.60
2018-03-24T10:53:28.904Z,28.40
2018-03-24T10:54:28.921Z,27.80
2018-03-24T10:55:28.947Z,28.30
2018-03-24T10:56:28.972Z,28.20
2018-03-24T10:57:28.996Z,28.60
2018-03-24T10:58:29.024Z,27.50
2018-03-24T10:59:29.053Z,27.40
2018-03-24T11:00:29.070Z,28.40
2018-03-24T11:01:29.095Z,25.60
2018-03-24T11:02:29.115Z,27.50
2018-03-24T11:03:29.146Z,29.60
2018-03-24T11:04:29.170Z,28.40
2018-03-24T11:05:29.190Z,28.10
2018-03-24T11:06:29.210Z,27.30
2018-03-24T11:07:29.236Z,28.40
2018-03-24T11:08:29.265Z,28.70
2018-03-24T11:09:29.290Z,28.30
2018-03-24T11:10:29.311Z,28.60
2018-03-24T11:11:29.343Z,27.80
2018-03-24T11:12:29.360Z,28.70
2018-03-24T11:13:29.383Z,27.80
2018-03-24T11:14:29.410Z,29.70
2018-03-24T11:15:29.437Z,29.30
2018-03-24T11:16:29.466Z,30.60
2018-03-24T11:17:29.483Z,28.70
2018-03-24T11:18:29.513Z,28.80
2018-03-24T11:19:29.535Z,31.70
2018-03-24T11:20:29.555Z,28.50
2018-03-24T11:21:29.576Z,30.40
2018-03-24T11:22:29.605Z,30.40
2018-03-24T11:23:29.626Z,29.80
2018-03-24T11:24:29.661Z,31.10
2018-03-24T11:25:29.675Z,31.40
2018-03-24T11:26:29.717Z,29.00
2018-03-24T11:27:29.728Z,30.50
2018-03-24T11:28:29.758Z,31.20
2018-03-24T11:29:29.774Z,29.70
2018-03-24T11:30:29.798Z,30.40
2018-03-24T11:31:29.820Z,30.30
2018-03-24T11:32:29.844Z,32.30
2018-03-24T11:33:29.868Z,29.90
2018-03-24T11:34:29.894Z,30.20
2018-03-24T11:35:29.919Z,30.90
2018-03-24T11:36:29.953Z,29.00
2018-03-24T11:37:29.964Z,29.10
2018-03-24T11:38:29.989Z,32.30
2018-03-24T11:39:30.018Z,32.20
2018-03-24T11:40:30.038Z,31.60
2018-03-24T11:41:30.077Z,31.20
2018-03-24T11:42:30.092Z,32.30
2018-03-24T11:43:30.125Z,31.90
2018-03-24T11:44:30.141Z,34.20
2018-03-24T11:45:30.163Z,30.50
2018-03-24T11:46:30.187Z,32.30
2018-03-24T11:47:30.207Z,33.60
2018-03-24T11:48:30.238Z,32.30
2018-03-24T11:49:30.263Z,31.20
2018-03-24T11:50:30.287Z,33.90
2018-03-24T11:51:30.303Z,33.10
2018-03-24T11:52:30.335Z,33.70
2018-03-24T11:53:30.354Z,31.60
2018-03-24T11:54:30.378Z,31.10
2018-03-24T11:55:30.414Z,32.10
2018-03-24T11:56:30.426Z,31.00
2018-03-24T11:57:30.455Z,34.50
2018-03-24T11:58:30.477Z,33.90
2018-03-24T11:59:30.499Z,32.90
2018-03-24T12:00:30.523Z,31.00
2018-03-24T12:01:30.556Z,30.30
2018-03-24T12:02:30.572Z,31.70
2018-03-24T12:03:30.599Z,30.40
2018-03-24T12:04:30.622Z,30.60
2018-03-24T12:05:30.650Z,31.20
2018-03-24T12:06:30.674Z,32.30
2018-03-24T12:07:30.708Z,31.00
2018-03-24T12:08:30.724Z,31.80
2018-03-24T12:09:30.743Z,31.90
2018-03-24T12:10:30.772Z,31.80
2018-03-24T12:11:30.794Z,31.30
2018-03-24T12:12:30.823Z,31.10
2018-03-24T12:13:30.842Z,32.70
2018-03-24T12:14:30.868Z,33.10
2018-03-24T12:15:30.896Z,32.10
2018-03-24T12:16:30.919Z,33.80
2018-03-24T12:17:30.948Z,34.20
2018-03-24T12:18:30.973Z,32.60
2018-03-24T12:19:30.996Z,35.90
2018-03-24T12:20:31.028Z,33.20
2018-03-24T12:21:31.051Z,34.00
2018-03-24T12:22:31.074Z,35.40
2018-03-24T12:23:31.097Z,34.00
2018-03-24T12:24:31.121Z,35.10
2018-03-24T12:25:31.150Z,33.30
2018-03-24T12:26:31.175Z,35.10
2018-03-24T12:27:31.198Z,34.80
2018-03-24T12:28:31.223Z,36.60
2018-03-24T12:29:31.249Z,36.10
2018-03-24T12:30:31.276Z,36.20
2018-03-24T12:31:31.306Z,34.90
2018-03-24T12:32:31.326Z,36.00
2018-03-24T12:33:31.350Z,36.40
2018-03-24T12:34:31.375Z,35.50
2018-03-24T12:35:31.406Z,35.00
2018-03-24T12:36:31.425Z,33.60
2018-03-24T12:37:31.451Z,33.90
2018-03-24T12:38:31.484Z,35.40
2018-03-24T12:39:31.507Z,36.90
2018-03-24T12:40:31.535Z,36.20
2018-03-24T12:41:31.557Z,35.20
2018-03-24T12:42:31.581Z,34.50
2018-03-24T12:43:31.605Z,34.20
2018-03-24T12:44:31.631Z,35.20
2018-03-24T12:45:31.654Z,36.20
2018-03-24T12:46:31.688Z,34.40
2018-03-24T12:47:31.709Z,34.00
2018-03-24T12:48:31.743Z,32.90
2018-03-24T12:49:31.760Z,36.30
2018-03-24T12:50:31.785Z,34.10
2018-03-24T12:51:31.820Z,34.10
2018-03-24T12:52:31.839Z,36.10
2018-03-24T12:53:31.862Z,33.60
2018-03-24T12:54:31.889Z,35.60
2018-03-24T12:55:31.914Z,35.30
2018-03-24T12:56:31.942Z,34.40